sensor_id;sensor_type;location;lat;lon;timestamp;P1;durP1;ratioP1;P2;durP2;ratioP2
70444;SDS011;57902;49.638;11.070;2023-07-29T00:01:11;2.63;;;1.38;;
70444;SDS011;57902;49.638;11.070;2023-07-29T00:03:37;2.33;;;1.20;;
70444;SDS011;57902;49.638;11.070;2023-07-29T00:06:04;3.13;;;1.40;;
70444;SDS011;57902;49.638;11.070;2023-07-29T00:08:31;3.05;;;1.38;;
70444;SDS011;57902;49.638;11.070;2023-07-29T00:10:57;2.70;;;1.40;;
70444;SDS011;57902;49.638;11.070;2023-07-29T00:13:24;3.90;;;1.48;;
70444;SDS011;57902;49.638;11.070;2023-07-29T00:15:53;2.78;;;1.30;;
70444;SDS011;57902;49.638;11.070;2023-07-29T00:18:21;3.33;;;1.30;;
70444;SDS011;57902;49.638;11.070;2023-07-29T00:20:49;2.75;;;1.38;;
70444;SDS011;57902;49.638;11.070;2023-07-29T00:23:17;3.20;;;1.45;;
70444;SDS011;57902;49.638;11.070;2023-07-29T00:25:45;3.97;;;1.30;;
70444;SDS011;57902;49.638;11.070;2023-07-29T00:28:12;2.33;;;1.20;;
70444;SDS011;57902;49.638;11.070;2023-07-29T00:30:39;3.20;;;1.30;;
70444;SDS011;57902;49.638;11.070;2023-07-29T00:33:05;2.13;;;1.27;;
70444;SDS011;57902;49.638;11.070;2023-07-29T00:35:32;2.75;;;1.30;;
70444;SDS011;57902;49.638;11.070;2023-07-29T00:37:58;3.78;;;1.35;;
70444;SDS011;57902;49.638;11.070;2023-07-29T00:40:25;3.88;;;1.20;;
70444;SDS011;57902;49.638;11.070;2023-07-29T00:42:54;3.70;;;1.60;;
70444;SDS011;57902;49.638;11.070;2023-07-29T00:45:21;2.53;;;1.35;;
70444;SDS011;57902;49.638;11.070;2023-07-29T00:47:51;3.58;;;1.50;;
70444;SDS011;57902;49.638;11.070;2023-07-29T00:50:17;2.10;;;1.20;;
70444;SDS011;57902;49.638;11.070;2023-07-29T00:52:44;3.80;;;1.30;;
70444;SDS011;57902;49.638;11.070;2023-07-29T00:55:11;3.58;;;1.30;;
70444;SDS011;57902;49.638;11.070;2023-07-29T00:57:38;2.92;;;1.20;;
70444;SDS011;57902;49.638;11.070;2023-07-29T01:00:05;2.25;;;1.20;;
70444;SDS011;57902;49.638;11.070;2023-07-29T01:02:32;2.85;;;1.42;;
70444;SDS011;57902;49.638;11.070;2023-07-29T01:05:02;3.05;;;1.40;;
70444;SDS011;57902;49.638;11.070;2023-07-29T01:07:49;3.67;;;1.20;;
70444;SDS011;57902;49.638;11.070;2023-07-29T01:13:30;4.43;;;1.33;;
70444;SDS011;57902;49.638;11.070;2023-07-29T01:16:09;3.47;;;1.30;;
70444;SDS011;57902;49.638;11.070;2023-07-29T01:18:42;3.00;;;1.40;;
70444;SDS011;57902;49.638;11.070;2023-07-29T01:21:09;2.78;;;1.50;;
70444;SDS011;57902;49.638;11.070;2023-07-29T01:23:37;2.60;;;1.38;;
70444;SDS011;57902;49.638;11.070;2023-07-29T01:26:04;2.28;;;1.20;;
70444;SDS011;57902;49.638;11.070;2023-07-29T01:28:30;3.35;;;1.50;;
70444;SDS011;57902;49.638;11.070;2023-07-29T01:31:12;3.30;;;1.38;;
70444;SDS011;57902;49.638;11.070;2023-07-29T01:33:45;3.80;;;1.35;;
70444;SDS011;57902;49.638;11.070;2023-07-29T01:36:26;1.90;;;1.20;;
70444;SDS011;57902;49.638;11.070;2023-07-29T01:38:56;3.80;;;1.50;;
70444;SDS011;57902;49.638;11.070;2023-07-29T01:41:24;3.55;;;1.40;;
70444;SDS011;57902;49.638;11.070;2023-07-29T01:43:52;2.95;;;1.40;;
70444;SDS011;57902;49.638;11.070;2023-07-29T01:46:27;3.55;;;1.40;;
70444;SDS011;57902;49.638;11.070;2023-07-29T01:48:54;3.95;;;1.40;;
70444;SDS011;57902;49.638;11.070;2023-07-29T01:53:48;3.17;;;1.40;;
70444;SDS011;57902;49.638;11.070;2023-07-29T01:56:15;4.20;;;1.55;;
70444;SDS011;57902;49.638;11.070;2023-07-29T01:58:42;3.35;;;1.58;;
70444;SDS011;57902;49.638;11.070;2023-07-29T02:01:08;5.05;;;1.70;;
70444;SDS011;57902;49.638;11.070;2023-07-29T02:03:35;5.30;;;1.48;;
70444;SDS011;57902;49.638;11.070;2023-07-29T02:06:01;2.42;;;1.40;;
70444;SDS011;57902;49.638;11.070;2023-07-29T02:08:28;5.10;;;1.50;;
70444;SDS011;57902;49.638;11.070;2023-07-29T02:10:54;5.18;;;1.60;;
70444;SDS011;57902;49.638;11.070;2023-07-29T02:13:21;3.13;;;1.50;;
70444;SDS011;57902;49.638;11.070;2023-07-29T02:15:47;3.90;;;1.60;;
70444;SDS011;57902;49.638;11.070;2023-07-29T02:18:14;3.22;;;1.50;;
70444;SDS011;57902;49.638;11.070;2023-07-29T02:20:40;4.93;;;1.70;;
70444;SDS011;57902;49.638;11.070;2023-07-29T02:23:08;5.68;;;1.50;;
70444;SDS011;57902;49.638;11.070;2023-07-29T02:25:35;3.08;;;1.60;;
70444;SDS011;57902;49.638;11.070;2023-07-29T02:28:02;3.35;;;1.60;;
70444;SDS011;57902;49.638;11.070;2023-07-29T02:30:30;4.00;;;1.48;;
70444;SDS011;57902;49.638;11.070;2023-07-29T02:32:57;4.13;;;1.70;;
70444;SDS011;57902;49.638;11.070;2023-07-29T02:35:24;2.63;;;1.42;;
70444;SDS011;57902;49.638;11.070;2023-07-29T02:37:50;4.55;;;1.80;;
70444;SDS011;57902;49.638;11.070;2023-07-29T02:40:17;4.68;;;1.80;;
70444;SDS011;57902;49.638;11.070;2023-07-29T02:42:43;4.68;;;1.60;;
70444;SDS011;57902;49.638;11.070;2023-07-29T02:45:10;3.55;;;1.80;;
70444;SDS011;57902;49.638;11.070;2023-07-29T02:47:37;4.95;;;1.83;;
70444;SDS011;57902;49.638;11.070;2023-07-29T02:50:04;3.28;;;1.63;;
70444;SDS011;57902;49.638;11.070;2023-07-29T02:52:31;4.57;;;1.90;;
70444;SDS011;57902;49.638;11.070;2023-07-29T02:54:58;4.32;;;1.73;;
70444;SDS011;57902;49.638;11.070;2023-07-29T02:57:25;3.40;;;1.73;;
70444;SDS011;57902;49.638;11.070;2023-07-29T02:59:51;3.90;;;1.88;;
70444;SDS011;57902;49.638;11.070;2023-07-29T03:02:18;4.15;;;1.90;;
70444;SDS011;57902;49.638;11.070;2023-07-29T03:04:44;5.22;;;1.92;;
70444;SDS011;57902;49.638;11.070;2023-07-29T03:07:11;4.18;;;1.80;;
70444;SDS011;57902;49.638;11.070;2023-07-29T03:09:38;4.50;;;2.17;;
70444;SDS011;57902;49.638;11.070;2023-07-29T03:12:04;4.50;;;2.00;;
70444;SDS011;57902;49.638;11.070;2023-07-29T03:14:32;4.88;;;1.95;;
70444;SDS011;57902;49.638;11.070;2023-07-29T03:17:01;4.90;;;2.20;;
70444;SDS011;57902;49.638;11.070;2023-07-29T03:19:29;5.13;;;1.98;;
70444;SDS011;57902;49.638;11.070;2023-07-29T03:21:55;4.20;;;2.00;;
70444;SDS011;57902;49.638;11.070;2023-07-29T03:24:22;3.47;;;1.73;;
70444;SDS011;57902;49.638;11.070;2023-07-29T03:26:48;4.35;;;1.88;;
70444;SDS011;57902;49.638;11.070;2023-07-29T03:29:15;4.80;;;1.95;;
70444;SDS011;57902;49.638;11.070;2023-07-29T03:31:41;3.53;;;1.75;;
70444;SDS011;57902;49.638;11.070;2023-07-29T03:34:08;4.10;;;2.10;;
70444;SDS011;57902;49.638;11.070;2023-07-29T03:36:37;6.90;;;2.10;;
70444;SDS011;57902;49.638;11.070;2023-07-29T03:39:04;6.38;;;2.30;;
70444;SDS011;57902;49.638;11.070;2023-07-29T03:41:31;4.28;;;2.35;;
70444;SDS011;57902;49.638;11.070;2023-07-29T03:43:57;4.15;;;2.03;;
70444;SDS011;57902;49.638;11.070;2023-07-29T03:46:25;3.75;;;2.00;;
70444;SDS011;57902;49.638;11.070;2023-07-29T03:48:51;6.68;;;2.30;;
70444;SDS011;57902;49.638;11.070;2023-07-29T03:51:18;4.43;;;1.88;;
70444;SDS011;57902;49.638;11.070;2023-07-29T03:53:45;5.43;;;2.22;;
70444;SDS011;57902;49.638;11.070;2023-07-29T03:56:11;5.53;;;2.35;;
70444;SDS011;57902;49.638;11.070;2023-07-29T03:58:38;4.53;;;2.20;;
70444;SDS011;57902;49.638;11.070;2023-07-29T04:01:04;4.60;;;2.10;;
70444;SDS011;57902;49.638;11.070;2023-07-29T04:03:33;5.32;;;2.83;;
70444;SDS011;57902;49.638;11.070;2023-07-29T04:06:03;4.80;;;2.35;;
70444;SDS011;57902;49.638;11.070;2023-07-29T04:08:32;3.80;;;1.98;;
70444;SDS011;57902;49.638;11.070;2023-07-29T04:11:00;3.78;;;2.10;;
70444;SDS011;57902;49.638;11.070;2023-07-29T04:13:29;4.47;;;2.15;;
70444;SDS011;57902;49.638;11.070;2023-07-29T04:15:56;5.35;;;2.15;;
70444;SDS011;57902;49.638;11.070;2023-07-29T04:18:23;3.97;;;2.17;;
70444;SDS011;57902;49.638;11.070;2023-07-29T04:20:49;4.55;;;2.13;;
70444;SDS011;57902;49.638;11.070;2023-07-29T04:23:16;5.07;;;1.92;;
70444;SDS011;57902;49.638;11.070;2023-07-29T04:25:48;4.57;;;2.00;;
70444;SDS011;57902;49.638;11.070;2023-07-29T04:28:27;4.13;;;1.90;;
70444;SDS011;57902;49.638;11.070;2023-07-29T04:30:56;4.43;;;2.28;;
70444;SDS011;57902;49.638;11.070;2023-07-29T04:33:23;4.03;;;2.08;;
70444;SDS011;57902;49.638;11.070;2023-07-29T04:35:52;5.22;;;2.20;;
70444;SDS011;57902;49.638;11.070;2023-07-29T04:38:29;5.40;;;2.38;;
70444;SDS011;57902;49.638;11.070;2023-07-29T04:41:02;4.80;;;2.17;;
70444;SDS011;57902;49.638;11.070;2023-07-29T04:46:23;5.85;;;2.20;;
70444;SDS011;57902;49.638;11.070;2023-07-29T04:48:50;5.15;;;2.22;;
70444;SDS011;57902;49.638;11.070;2023-07-29T04:51:25;5.72;;;2.15;;
70444;SDS011;57902;49.638;11.070;2023-07-29T04:54:39;4.60;;;1.90;;
70444;SDS011;57902;49.638;11.070;2023-07-29T04:57:08;5.68;;;2.20;;
70444;SDS011;57902;49.638;11.070;2023-07-29T04:59:43;6.07;;;2.20;;
70444;SDS011;57902;49.638;11.070;2023-07-29T05:02:24;4.68;;;2.10;;
70444;SDS011;57902;49.638;11.070;2023-07-29T05:07:39;4.85;;;1.90;;
70444;SDS011;57902;49.638;11.070;2023-07-29T05:10:20;4.70;;;2.10;;
70444;SDS011;57902;49.638;11.070;2023-07-29T05:12:50;5.18;;;2.05;;
70444;SDS011;57902;49.638;11.070;2023-07-29T05:15:28;5.30;;;2.10;;
70444;SDS011;57902;49.638;11.070;2023-07-29T05:18:04;5.78;;;2.10;;
70444;SDS011;57902;49.638;11.070;2023-07-29T05:20:42;6.40;;;1.90;;
70444;SDS011;57902;49.638;11.070;2023-07-29T05:23:13;5.82;;;2.10;;
70444;SDS011;57902;49.638;11.070;2023-07-29T05:25:48;5.63;;;1.95;;
70444;SDS011;57902;49.638;11.070;2023-07-29T05:28:42;5.57;;;1.95;;
70444;SDS011;57902;49.638;11.070;2023-07-29T05:31:22;5.97;;;1.98;;
70444;SDS011;57902;49.638;11.070;2023-07-29T05:33:51;3.28;;;1.60;;
70444;SDS011;57902;49.638;11.070;2023-07-29T05:36:24;4.53;;;1.50;;
70444;SDS011;57902;49.638;11.070;2023-07-29T05:38:54;2.90;;;1.40;;
70444;SDS011;57902;49.638;11.070;2023-07-29T05:41:20;5.50;;;2.17;;
70444;SDS011;57902;49.638;11.070;2023-07-29T05:43:52;3.25;;;1.63;;
70444;SDS011;57902;49.638;11.070;2023-07-29T05:46:36;4.93;;;1.95;;
70444;SDS011;57902;49.638;11.070;2023-07-29T05:49:06;5.93;;;1.90;;
70444;SDS011;57902;49.638;11.070;2023-07-29T05:51:33;3.95;;;1.55;;
70444;SDS011;57902;49.638;11.070;2023-07-29T05:54:06;3.30;;;1.60;;
70444;SDS011;57902;49.638;11.070;2023-07-29T05:59:28;4.35;;;1.67;;
70444;SDS011;57902;49.638;11.070;2023-07-29T06:02:04;5.95;;;1.60;;
70444;SDS011;57902;49.638;11.070;2023-07-29T06:04:39;4.38;;;1.80;;
70444;SDS011;57902;49.638;11.070;2023-07-29T06:07:20;3.30;;;1.67;;
70444;SDS011;57902;49.638;11.070;2023-07-29T06:10:01;5.30;;;1.70;;
70444;SDS011;57902;49.638;11.070;2023-07-29T06:12:30;2.47;;;1.40;;
70444;SDS011;57902;49.638;11.070;2023-07-29T06:15:00;4.95;;;1.42;;
70444;SDS011;57902;49.638;11.070;2023-07-29T06:17:36;3.95;;;1.50;;
70444;SDS011;57902;49.638;11.070;2023-07-29T06:20:29;3.55;;;1.40;;
70444;SDS011;57902;49.638;11.070;2023-07-29T06:23:26;2.47;;;1.23;;
70444;SDS011;57902;49.638;11.070;2023-07-29T06:25:56;4.40;;;1.40;;
70444;SDS011;57902;49.638;11.070;2023-07-29T06:28:32;3.17;;;1.42;;
70444;SDS011;57902;49.638;11.070;2023-07-29T06:30:59;3.13;;;1.30;;
70444;SDS011;57902;49.638;11.070;2023-07-29T06:33:26;5.25;;;1.30;;
70444;SDS011;57902;49.638;11.070;2023-07-29T06:36:10;3.38;;;1.30;;
70444;SDS011;57902;49.638;11.070;2023-07-29T06:38:36;4.50;;;1.40;;
70444;SDS011;57902;49.638;11.070;2023-07-29T06:41:04;2.47;;;1.25;;
70444;SDS011;57902;49.638;11.070;2023-07-29T06:43:31;3.92;;;1.30;;
70444;SDS011;57902;49.638;11.070;2023-07-29T06:45:58;3.85;;;1.60;;
70444;SDS011;57902;49.638;11.070;2023-07-29T06:48:41;2.72;;;1.27;;
70444;SDS011;57902;49.638;11.070;2023-07-29T06:51:12;8.50;;;1.67;;
70444;SDS011;57902;49.638;11.070;2023-07-29T06:53:38;7.65;;;1.60;;
70444;SDS011;57902;49.638;11.070;2023-07-29T06:56:05;5.28;;;1.33;;
70444;SDS011;57902;49.638;11.070;2023-07-29T06:58:33;4.78;;;1.20;;
70444;SDS011;57902;49.638;11.070;2023-07-29T07:01:02;4.60;;;1.48;;
70444;SDS011;57902;49.638;11.070;2023-07-29T07:03:32;2.58;;;1.33;;
70444;SDS011;57902;49.638;11.070;2023-07-29T07:06:05;4.72;;;1.50;;
70444;SDS011;57902;49.638;11.070;2023-07-29T07:08:32;2.85;;;1.25;;
70444;SDS011;57902;49.638;11.070;2023-07-29T07:10:58;3.42;;;1.20;;
70444;SDS011;57902;49.638;11.070;2023-07-29T07:13:25;2.22;;;1.30;;
70444;SDS011;57902;49.638;11.070;2023-07-29T07:15:56;2.47;;;1.20;;
70444;SDS011;57902;49.638;11.070;2023-07-29T07:18:24;2.67;;;1.40;;
70444;SDS011;57902;49.638;11.070;2023-07-29T07:20:51;3.20;;;1.30;;
70444;SDS011;57902;49.638;11.070;2023-07-29T07:23:21;3.05;;;1.40;;
70444;SDS011;57902;49.638;11.070;2023-07-29T07:25:57;3.40;;;1.27;;
70444;SDS011;57902;49.638;11.070;2023-07-29T07:28:35;2.83;;;1.40;;
70444;SDS011;57902;49.638;11.070;2023-07-29T07:33:36;2.92;;;1.50;;
70444;SDS011;57902;49.638;11.070;2023-07-29T07:36:11;2.40;;;1.40;;
70444;SDS011;57902;49.638;11.070;2023-07-29T07:38:37;2.95;;;1.50;;
70444;SDS011;57902;49.638;11.070;2023-07-29T07:41:04;3.63;;;1.50;;
70444;SDS011;57902;49.638;11.070;2023-07-29T07:43:36;2.35;;;1.30;;
70444;SDS011;57902;49.638;11.070;2023-07-29T07:46:25;3.70;;;1.63;;
70444;SDS011;57902;49.638;11.070;2023-07-29T07:48:54;4.30;;;1.38;;
70444;SDS011;57902;49.638;11.070;2023-07-29T07:51:21;3.45;;;1.40;;
70444;SDS011;57902;49.638;11.070;2023-07-29T07:53:50;3.55;;;1.30;;
70444;SDS011;57902;49.638;11.070;2023-07-29T07:56:22;3.53;;;1.30;;
70444;SDS011;57902;49.638;11.070;2023-07-29T07:58:51;2.22;;;1.30;;
70444;SDS011;57902;49.638;11.070;2023-07-29T08:01:18;2.72;;;1.20;;
70444;SDS011;57902;49.638;11.070;2023-07-29T08:03:44;3.85;;;1.38;;
70444;SDS011;57902;49.638;11.070;2023-07-29T08:06:11;3.75;;;1.17;;
70444;SDS011;57902;49.638;11.070;2023-07-29T08:08:37;3.13;;;1.23;;
70444;SDS011;57902;49.638;11.070;2023-07-29T08:11:04;4.55;;;1.40;;
70444;SDS011;57902;49.638;11.070;2023-07-29T08:13:31;3.22;;;1.10;;
70444;SDS011;57902;49.638;11.070;2023-07-29T08:15:57;2.28;;;1.20;;
70444;SDS011;57902;49.638;11.070;2023-07-29T08:18:24;3.20;;;1.17;;
70444;SDS011;57902;49.638;11.070;2023-07-29T08:20:51;2.20;;;1.20;;
70444;SDS011;57902;49.638;11.070;2023-07-29T08:23:25;2.17;;;0.98;;
70444;SDS011;57902;49.638;11.070;2023-07-29T08:25:52;2.67;;;1.20;;
70444;SDS011;57902;49.638;11.070;2023-07-29T08:28:20;3.65;;;1.10;;
70444;SDS011;57902;49.638;11.070;2023-07-29T08:30:47;2.78;;;1.25;;
70444;SDS011;57902;49.638;11.070;2023-07-29T08:33:14;2.30;;;1.10;;
70444;SDS011;57902;49.638;11.070;2023-07-29T08:35:41;3.15;;;1.10;;
70444;SDS011;57902;49.638;11.070;2023-07-29T08:38:11;1.83;;;0.95;;
70444;SDS011;57902;49.638;11.070;2023-07-29T08:40:38;2.47;;;1.20;;
70444;SDS011;57902;49.638;11.070;2023-07-29T08:43:08;3.22;;;1.15;;
70444;SDS011;57902;49.638;11.070;2023-07-29T08:45:37;5.05;;;1.10;;
70444;SDS011;57902;49.638;11.070;2023-07-29T08:48:07;2.55;;;1.10;;
70444;SDS011;57902;49.638;11.070;2023-07-29T08:50:36;2.60;;;1.20;;
70444;SDS011;57902;49.638;11.070;2023-07-29T08:53:04;5.15;;;1.80;;
70444;SDS011;57902;49.638;11.070;2023-07-29T08:57:59;3.58;;;1.33;;
70444;SDS011;57902;49.638;11.070;2023-07-29T09:00:29;1.95;;;1.08;;
70444;SDS011;57902;49.638;11.070;2023-07-29T09:02:55;2.47;;;1.10;;
70444;SDS011;57902;49.638;11.070;2023-07-29T09:05:24;3.38;;;1.10;;
70444;SDS011;57902;49.638;11.070;2023-07-29T09:07:51;3.65;;;1.08;;
70444;SDS011;57902;49.638;11.070;2023-07-29T09:10:23;3.05;;;1.20;;
70444;SDS011;57902;49.638;11.070;2023-07-29T09:12:52;3.00;;;1.15;;
70444;SDS011;57902;49.638;11.070;2023-07-29T09:15:26;2.55;;;1.00;;
70444;SDS011;57902;49.638;11.070;2023-07-29T09:17:55;2.60;;;1.10;;
70444;SDS011;57902;49.638;11.070;2023-07-29T09:20:27;3.60;;;1.17;;
70444;SDS011;57902;49.638;11.070;2023-07-29T09:22:55;2.92;;;1.10;;
70444;SDS011;57902;49.638;11.070;2023-07-29T09:25:27;3.60;;;1.20;;
70444;SDS011;57902;49.638;11.070;2023-07-29T09:28:00;2.28;;;1.10;;
70444;SDS011;57902;49.638;11.070;2023-07-29T09:30:33;4.55;;;1.20;;
70444;SDS011;57902;49.638;11.070;2023-07-29T09:33:00;3.20;;;0.98;;
70444;SDS011;57902;49.638;11.070;2023-07-29T09:35:28;1.58;;;0.85;;
70444;SDS011;57902;49.638;11.070;2023-07-29T09:37:56;2.20;;;0.98;;
70444;SDS011;57902;49.638;11.070;2023-07-29T09:40:23;3.67;;;1.00;;
70444;SDS011;57902;49.638;11.070;2023-07-29T09:42:50;1.98;;;0.90;;
70444;SDS011;57902;49.638;11.070;2023-07-29T09:45:24;1.80;;;1.05;;
70444;SDS011;57902;49.638;11.070;2023-07-29T09:48:04;2.85;;;0.98;;
70444;SDS011;57902;49.638;11.070;2023-07-29T09:50:35;2.80;;;0.95;;
70444;SDS011;57902;49.638;11.070;2023-07-29T09:53:03;2.03;;;0.95;;
70444;SDS011;57902;49.638;11.070;2023-07-29T09:55:32;2.58;;;0.90;;
70444;SDS011;57902;49.638;11.070;2023-07-29T09:58:00;1.63;;;0.80;;
70444;SDS011;57902;49.638;11.070;2023-07-29T10:00:29;1.95;;;0.80;;
70444;SDS011;57902;49.638;11.070;2023-07-29T10:02:57;2.15;;;0.85;;
70444;SDS011;57902;49.638;11.070;2023-07-29T10:05:27;2.15;;;0.95;;
70444;SDS011;57902;49.638;11.070;2023-07-29T10:10:22;2.15;;;0.80;;
70444;SDS011;57902;49.638;11.070;2023-07-29T10:12:48;2.28;;;1.10;;
70444;SDS011;57902;49.638;11.070;2023-07-29T10:15:16;2.95;;;0.90;;
70444;SDS011;57902;49.638;11.070;2023-07-29T10:17:43;1.05;;;0.80;;
70444;SDS011;57902;49.638;11.070;2023-07-29T10:20:15;3.05;;;0.98;;
70444;SDS011;57902;49.638;11.070;2023-07-29T10:22:43;3.42;;;0.80;;
70444;SDS011;57902;49.638;11.070;2023-07-29T10:27:49;2.85;;;1.00;;
70444;SDS011;57902;49.638;11.070;2023-07-29T10:30:24;2.28;;;0.90;;
70444;SDS011;57902;49.638;11.070;2023-07-29T10:32:51;2.70;;;1.10;;
70444;SDS011;57902;49.638;11.070;2023-07-29T10:35:19;2.35;;;1.10;;
70444;SDS011;57902;49.638;11.070;2023-07-29T10:37:46;4.72;;;1.13;;
70444;SDS011;57902;49.638;11.070;2023-07-29T10:40:17;2.95;;;0.98;;
70444;SDS011;57902;49.638;11.070;2023-07-29T10:45:56;4.35;;;1.35;;
70444;SDS011;57902;49.638;11.070;2023-07-29T10:48:41;1.77;;;1.00;;
70444;SDS011;57902;49.638;11.070;2023-07-29T10:51:21;3.17;;;1.15;;
70444;SDS011;57902;49.638;11.070;2023-07-29T10:53:53;2.95;;;1.00;;
70444;SDS011;57902;49.638;11.070;2023-07-29T10:56:26;4.55;;;1.17;;
70444;SDS011;57902;49.638;11.070;2023-07-29T10:58:58;2.63;;;1.00;;
70444;SDS011;57902;49.638;11.070;2023-07-29T11:01:54;1.90;;;1.00;;
70444;SDS011;57902;49.638;11.070;2023-07-29T11:04:45;2.83;;;1.10;;
70444;SDS011;57902;49.638;11.070;2023-07-29T11:07:24;3.47;;;1.10;;
70444;SDS011;57902;49.638;11.070;2023-07-29T11:09:56;3.38;;;1.02;;
70444;SDS011;57902;49.638;11.070;2023-07-29T11:12:42;2.65;;;1.10;;
70444;SDS011;57902;49.638;11.070;2023-07-29T11:17:43;1.98;;;1.08;;
70444;SDS011;57902;49.638;11.070;2023-07-29T11:20:11;2.28;;;1.10;;
70444;SDS011;57902;49.638;11.070;2023-07-29T11:22:39;3.03;;;1.10;;
70444;SDS011;57902;49.638;11.070;2023-07-29T11:25:10;2.17;;;1.20;;
70444;SDS011;57902;49.638;11.070;2023-07-29T11:27:38;2.70;;;1.00;;
70444;SDS011;57902;49.638;11.070;2023-07-29T11:30:06;2.83;;;1.10;;
70444;SDS011;57902;49.638;11.070;2023-07-29T11:32:58;3.55;;;1.20;;
70444;SDS011;57902;49.638;11.070;2023-07-29T11:35:25;6.10;;;1.20;;
70444;SDS011;57902;49.638;11.070;2023-07-29T11:37:52;2.75;;;1.38;;
70444;SDS011;57902;49.638;11.070;2023-07-29T11:40:21;2.05;;;1.10;;
70444;SDS011;57902;49.638;11.070;2023-07-29T11:42:49;3.40;;;1.17;;
70444;SDS011;57902;49.638;11.070;2023-07-29T11:45:17;2.30;;;1.10;;
70444;SDS011;57902;49.638;11.070;2023-07-29T11:47:46;4.53;;;1.38;;
70444;SDS011;57902;49.638;11.070;2023-07-29T11:50:13;3.42;;;1.15;;
70444;SDS011;57902;49.638;11.070;2023-07-29T11:52:42;2.83;;;1.13;;
70444;SDS011;57902;49.638;11.070;2023-07-29T11:55:11;2.80;;;1.13;;
70444;SDS011;57902;49.638;11.070;2023-07-29T11:57:42;3.72;;;1.17;;
70444;SDS011;57902;49.638;11.070;2023-07-29T12:00:10;3.38;;;1.30;;
70444;SDS011;57902;49.638;11.070;2023-07-29T12:02:39;2.92;;;1.10;;
70444;SDS011;57902;49.638;11.070;2023-07-29T12:05:15;2.15;;;1.10;;
70444;SDS011;57902;49.638;11.070;2023-07-29T12:07:43;2.20;;;1.17;;
70444;SDS011;57902;49.638;11.070;2023-07-29T12:10:10;2.55;;;1.25;;
70444;SDS011;57902;49.638;11.070;2023-07-29T12:12:47;2.45;;;1.02;;
70444;SDS011;57902;49.638;11.070;2023-07-29T12:15:28;1.83;;;1.00;;
70444;SDS011;57902;49.638;11.070;2023-07-29T12:20:23;2.13;;;0.90;;
70444;SDS011;57902;49.638;11.070;2023-07-29T12:22:57;2.42;;;1.30;;
70444;SDS011;57902;49.638;11.070;2023-07-29T12:25:25;2.40;;;1.27;;
70444;SDS011;57902;49.638;11.070;2023-07-29T12:27:56;4.82;;;1.25;;
70444;SDS011;57902;49.638;11.070;2023-07-29T12:30:23;1.90;;;1.10;;
70444;SDS011;57902;49.638;11.070;2023-07-29T12:32:54;3.80;;;1.40;;
70444;SDS011;57902;49.638;11.070;2023-07-29T12:35:20;3.17;;;1.13;;
70444;SDS011;57902;49.638;11.070;2023-07-29T12:37:47;3.35;;;1.17;;
70444;SDS011;57902;49.638;11.070;2023-07-29T12:40:24;6.30;;;1.20;;
70444;SDS011;57902;49.638;11.070;2023-07-29T12:42:52;2.03;;;1.10;;
70444;SDS011;57902;49.638;11.070;2023-07-29T12:45:19;2.17;;;1.10;;
70444;SDS011;57902;49.638;11.070;2023-07-29T12:47:48;2.72;;;1.20;;
70444;SDS011;57902;49.638;11.070;2023-07-29T12:50:16;2.47;;;1.13;;
70444;SDS011;57902;49.638;11.070;2023-07-29T12:52:42;3.22;;;1.23;;
70444;SDS011;57902;49.638;11.070;2023-07-29T12:55:11;3.03;;;1.30;;
70444;SDS011;57902;49.638;11.070;2023-07-29T13:00:11;2.65;;;1.00;;
70444;SDS011;57902;49.638;11.070;2023-07-29T13:02:41;2.30;;;1.13;;
70444;SDS011;57902;49.638;11.070;2023-07-29T13:05:11;3.70;;;1.23;;
70444;SDS011;57902;49.638;11.070;2023-07-29T13:07:41;3.25;;;1.20;;
70444;SDS011;57902;49.638;11.070;2023-07-29T13:10:12;3.03;;;1.20;;
70444;SDS011;57902;49.638;11.070;2023-07-29T13:12:39;3.50;;;1.20;;
70444;SDS011;57902;49.638;11.070;2023-07-29T13:15:06;3.20;;;1.15;;
70444;SDS011;57902;49.638;11.070;2023-07-29T13:17:33;2.83;;;1.20;;
70444;SDS011;57902;49.638;11.070;2023-07-29T13:20:01;3.22;;;1.15;;
70444;SDS011;57902;49.638;11.070;2023-07-29T13:22:27;2.20;;;1.17;;
70444;SDS011;57902;49.638;11.070;2023-07-29T13:24:54;1.73;;;1.00;;
70444;SDS011;57902;49.638;11.070;2023-07-29T13:27:20;2.15;;;1.20;;
70444;SDS011;57902;49.638;11.070;2023-07-29T13:32:15;3.15;;;1.20;;
70444;SDS011;57902;49.638;11.070;2023-07-29T13:34:41;3.17;;;1.25;;
70444;SDS011;57902;49.638;11.070;2023-07-29T13:37:11;2.50;;;1.20;;
70444;SDS011;57902;49.638;11.070;2023-07-29T13:39:38;2.78;;;1.17;;
70444;SDS011;57902;49.638;11.070;2023-07-29T13:42:05;2.85;;;1.20;;
70444;SDS011;57902;49.638;11.070;2023-07-29T13:44:31;2.50;;;1.10;;
70444;SDS011;57902;49.638;11.070;2023-07-29T13:46:58;4.22;;;1.40;;
70444;SDS011;57902;49.638;11.070;2023-07-29T13:49:25;2.53;;;1.17;;
70444;SDS011;57902;49.638;11.070;2023-07-29T13:51:51;1.80;;;1.10;;
70444;SDS011;57902;49.638;11.070;2023-07-29T13:54:18;3.13;;;1.30;;
70444;SDS011;57902;49.638;11.070;2023-07-29T13:56:44;3.35;;;1.13;;
70444;SDS011;57902;49.638;11.070;2023-07-29T13:59:11;2.85;;;1.30;;
70444;SDS011;57902;49.638;11.070;2023-07-29T14:05:03;3.42;;;1.30;;
70444;SDS011;57902;49.638;11.070;2023-07-29T14:08:01;2.83;;;1.20;;
70444;SDS011;57902;49.638;11.070;2023-07-29T14:26:17;1.88;;;0.93;;
70444;SDS011;57902;49.638;11.070;2023-07-29T14:29:20;1.58;;;0.90;;
70444;SDS011;57902;49.638;11.070;2023-07-29T14:32:20;1.73;;;0.80;;
70444;SDS011;57902;49.638;11.070;2023-07-29T14:34:54;1.60;;;0.90;;
70444;SDS011;57902;49.638;11.070;2023-07-29T15:02:07;2.10;;;1.00;;
70444;SDS011;57902;49.638;11.070;2023-07-29T15:04:37;3.03;;;1.08;;
70444;SDS011;57902;49.638;11.070;2023-07-29T15:08:02;2.42;;;1.00;;
70444;SDS011;57902;49.638;11.070;2023-07-29T15:11:08;2.10;;;1.00;;
70444;SDS011;57902;49.638;11.070;2023-07-29T15:13:58;1.88;;;0.82;;
70444;SDS011;57902;49.638;11.070;2023-07-29T15:28:16;2.28;;;1.05;;
70444;SDS011;57902;49.638;11.070;2023-07-29T15:31:30;2.75;;;1.10;;
70444;SDS011;57902;49.638;11.070;2023-07-29T15:41:34;1.80;;;1.00;;
70444;SDS011;57902;49.638;11.070;2023-07-29T15:44:01;2.80;;;1.10;;
70444;SDS011;57902;49.638;11.070;2023-07-29T15:51:02;2.58;;;1.00;;
70444;SDS011;57902;49.638;11.070;2023-07-29T15:53:58;2.38;;;1.17;;
70444;SDS011;57902;49.638;11.070;2023-07-29T15:57:04;2.08;;;1.02;;
70444;SDS011;57902;49.638;11.070;2023-07-29T16:06:52;3.03;;;1.10;;
70444;SDS011;57902;49.638;11.070;2023-07-29T16:09:46;3.45;;;1.00;;
70444;SDS011;57902;49.638;11.070;2023-07-29T16:17:10;1.90;;;1.00;;
70444;SDS011;57902;49.638;11.070;2023-07-29T16:20:31;3.47;;;1.40;;
70444;SDS011;57902;49.638;11.070;2023-07-29T16:23:12;2.83;;;1.20;;
70444;SDS011;57902;49.638;11.070;2023-07-29T16:25:57;3.80;;;1.30;;
70444;SDS011;57902;49.638;11.070;2023-07-29T16:29:25;4.20;;;1.23;;
70444;SDS011;57902;49.638;11.070;2023-07-29T16:40:03;3.40;;;1.10;;
70444;SDS011;57902;49.638;11.070;2023-07-29T16:42:46;2.00;;;1.05;;
70444;SDS011;57902;49.638;11.070;2023-07-29T18:37:14;3.08;;;1.20;;
70444;SDS011;57902;49.638;11.070;2023-07-29T18:39:49;2.63;;;1.20;;
70444;SDS011;57902;49.638;11.070;2023-07-29T18:42:19;5.20;;;1.45;;
70444;SDS011;57902;49.638;11.070;2023-07-29T18:44:49;4.95;;;1.35;;
70444;SDS011;57902;49.638;11.070;2023-07-29T18:47:17;3.67;;;1.40;;
70444;SDS011;57902;49.638;11.070;2023-07-29T18:49:44;3.15;;;1.10;;
70444;SDS011;57902;49.638;11.070;2023-07-29T18:52:19;3.17;;;1.30;;
70444;SDS011;57902;49.638;11.070;2023-07-29T18:55:24;2.53;;;1.20;;